Time;durP1;ratioP1;P1;durP2;ratioP2;P2;SDS_P1;SDS_P2;PMS_P1;PMS_P2;Temp;Humidity;BMP_temperature;BMP_pressure;BME280_temperature;BME280_humidity;BME280_pressure;Samples;Min_cycle;Max_cycle;Signal;HPM_P1;HPM_P2
2022/04/29 18:13:27;;;;;;;31.00;14.00;;;14.60;99.90;;;;;;4247954;27;20535;-94
2022/04/29 18:15:28;;;;;;;21.38;12.68;;;14.60;99.90;;;;;;4213815;28;20257;-94
2022/04/29 18:17:29;;;;;;;26.15;14.10;;;14.90;99.90;;;;;;4213322;28;20165;-96
2022/04/29 18:19:36;;;;;;;21.45;12.80;;;15.20;99.90;;;;;;4213585;28;20279;-94
2022/04/29 18:21:37;;;;;;;20.67;13.43;;;15.50;99.90;;;;;;4213279;28;20162;-95
2022/04/29 18:23:38;;;;;;;20.95;13.05;;;15.60;99.90;;;;;;4214008;28;20196;-95
2022/04/29 18:25:39;;;;;;;25.00;12.18;;;15.60;99.90;;;;;;4215539;28;20159;-93
2022/04/29 18:27:40;;;;;;;22.00;11.05;;;15.50;99.90;;;;;;4214238;28;20182;-94
2022/04/29 18:29:41;;;;;;;33.38;12.55;;;15.40;99.90;;;;;;4214457;28;20214;-94
2022/04/29 18:31:42;;;;;;;20.63;11.52;;;15.30;99.90;;;;;;4215159;28;20213;-95
2022/04/29 18:33:43;;;;;;;21.88;11.07;;;15.30;99.90;;;;;;4216799;28;20327;-94
2022/04/29 18:35:44;;;;;;;22.00;11.02;;;15.20;99.90;;;;;;4214036;28;20219;-93
2022/04/29 18:37:46;;;;;;;21.02;11.60;;;15.10;99.90;;;;;;4213944;28;20169;-94
2022/04/29 18:39:47;;;;;;;25.40;10.85;;;15.10;99.90;;;;;;4214355;28;20170;-94
2022/04/29 18:41:48;;;;;;;21.13;11.18;;;15.00;99.90;;;;;;4213625;28;20224;-93
2022/04/29 18:43:48;;;;;;;17.60;10.13;;;14.90;99.90;;;;;;4213328;28;20178;-95
2022/04/29 18:45:49;;;;;;;17.00;10.25;;;14.80;99.90;;;;;;4231661;28;20162;-95
2022/04/29 18:47:50;;;;;;;20.10;10.07;;;14.70;99.90;;;;;;4231436;28;20184;-94
2022/04/29 18:49:51;;;;;;;19.80;9.43;;;14.60;99.90;;;;;;4213314;28;20166;-94
2022/04/29 18:51:52;;;;;;;21.33;11.52;;;14.50;99.90;;;;;;4213489;28;20202;-94
2022/04/29 18:53:54;;;;;;;15.90;10.35;;;14.60;99.90;;;;;;4213455;28;20170;-94
2022/04/29 18:55:54;;;;;;;23.25;11.25;;;14.50;99.90;;;;;;4230219;28;20187;-94
2022/04/29 18:57:55;;;;;;;19.05;10.85;;;14.50;99.90;;;;;;4213394;28;20194;-93
2022/04/29 18:59:59;;;;;;;22.15;11.00;;;14.50;99.90;;;;;;4230100;28;20162;-94
2022/04/29 19:02:03;;;;;;;22.15;10.80;;;14.50;99.90;;;;;;4212705;28;20166;-94
2022/04/29 19:04:06;;;;;;;18.85;10.82;;;14.50;99.90;;;;;;4212937;28;20192;-95
2022/04/29 19:06:11;;;;;;;20.40;11.07;;;14.30;99.90;;;;;;4213512;28;20170;-93
2022/04/29 19:08:17;;;;;;;24.52;11.10;;;14.30;99.90;;;;;;4213077;28;20285;-94
2022/04/29 19:10:20;;;;;;;24.40;10.55;;;14.20;99.90;;;;;;4213440;28;20173;-93
2022/04/29 19:12:21;;;;;;;19.17;10.57;;;14.10;99.90;;;;;;4213814;28;20246;-94
2022/04/29 19:14:24;;;;;;;20.02;9.50;;;14.10;99.90;;;;;;4214682;28;20250;-94
2022/04/29 19:16:29;;;;;;;16.88;9.38;;;14.10;99.90;;;;;;4213871;28;20246;-94
2022/04/29 19:18:29;;;;;;;21.73;10.00;;;14.00;99.90;;;;;;4212136;28;20183;-93
2022/04/29 19:20:30;;;;;;;22.00;10.55;;;14.00;99.90;;;;;;4212631;28;20174;-94
2022/04/29 19:22:31;;;;;;;20.48;9.38;;;14.00;99.90;;;;;;4212557;28;20550;-94
2022/04/29 19:24:32;;;;;;;20.35;9.70;;;13.90;99.90;;;;;;4202183;28;20171;-93
2022/04/29 19:26:33;;;;;;;17.75;9.75;;;13.90;99.90;;;;;;4202018;28;20163;-94
2022/04/29 19:28:34;;;;;;;23.10;10.90;;;13.80;99.90;;;;;;4204407;28;20210;-93
2022/04/29 19:30:35;;;;;;;21.45;9.25;;;13.80;99.90;;;;;;4201901;28;20159;-93
2022/04/29 19:32:36;;;;;;;23.73;10.18;;;13.80;99.90;;;;;;4202954;28;20242;-93
2022/04/29 19:34:39;;;;;;;21.58;10.05;;;13.70;99.90;;;;;;4202168;28;20171;-93
2022/04/29 19:36:40;;;;;;;17.85;9.70;;;13.60;99.90;;;;;;4201543;28;20175;-93
2022/04/29 19:38:43;;;;;;;17.83;9.13;;;13.70;99.90;;;;;;4201339;28;20218;-94
2022/04/29 19:40:44;;;;;;;17.95;8.93;;;13.70;99.90;;;;;;4201898;28;20175;-92
2022/04/29 19:42:49;;;;;;;19.85;9.85;;;13.70;99.90;;;;;;4201080;28;20167;-93
2022/04/29 19:44:51;;;;;;;16.17;9.98;;;13.70;99.90;;;;;;4202084;28;20190;-94
2022/04/29 19:46:54;;;;;;;15.23;9.32;;;13.80;99.90;;;;;;4201748;28;20646;-93
2022/04/29 19:48:55;;;;;;;18.33;9.52;;;13.60;99.90;;;;;;4200654;28;20232;-93
2022/04/29 19:50:56;;;;;;;17.83;9.40;;;13.50;99.90;;;;;;4200798;28;20175;-92
2022/04/29 19:52:57;;;;;;;16.73;9.90;;;13.50;99.90;;;;;;4200459;28;20290;-93
2022/04/29 19:54:58;;;;;;;21.80;9.75;;;13.40;99.90;;;;;;4200606;28;20674;-93
2022/04/29 19:59:17;;;;;;;19.38;9.85;;;13.30;99.90;;;;;;4217094;28;20186;-93
2022/04/29 20:03:45;;;;;;;19.73;10.38;;;13.40;99.90;;;;;;4217772;28;20235;-94
2022/04/29 20:05:46;;;;;;;15.40;9.48;;;13.50;99.90;;;;;;4222308;22;20220;-94
2022/04/29 20:07:48;;;;;;;17.80;9.20;;;13.40;99.90;;;;;;4151745;28;20256;-94
2022/04/29 20:09:49;;;;;;;12.88;8.38;;;13.30;99.90;;;;;;4166634;28;20180;-94
2022/04/29 20:11:50;;;;;;;23.77;9.88;;;13.20;99.90;;;;;;4167513;28;20204;-95
2022/04/29 20:13:55;;;;;;;15.35;8.80;;;13.10;99.90;;;;;;4168309;28;20629;-94
2022/04/29 20:16:00;;;;;;;19.83;9.82;;;13.00;99.90;;;;;;4167935;28;20263;-96
2022/04/29 20:18:05;;;;;;;19.25;9.00;;;12.80;99.90;;;;;;4167259;28;20235;-94
2022/04/29 20:20:09;;;;;;;15.07;9.52;;;12.80;99.90;;;;;;4167351;28;20179;-93
2022/04/29 20:22:10;;;;;;;19.83;9.68;;;12.80;99.90;;;;;;4168756;28;20172;-95
2022/04/29 20:24:12;;;;;;;18.77;9.88;;;12.70;99.90;;;;;;4168091;28;20184;-94
2022/04/29 20:26:13;;;;;;;15.13;8.73;;;12.60;99.90;;;;;;4167746;28;20184;-95
2022/04/29 20:28:16;;;;;;;14.57;9.45;;;12.40;99.90;;;;;;4167171;28;20274;-94
2022/04/29 20:30:18;;;;;;;14.45;7.65;;;12.40;99.90;;;;;;4166734;28;20179;-94
2022/04/29 20:32:19;;;;;;;16.55;7.80;;;12.30;99.90;;;;;;4166040;28;20204;-94
2022/04/29 20:34:20;;;;;;;14.95;9.82;;;12.30;99.90;;;;;;4182829;28;20176;-95
2022/04/29 20:36:21;;;;;;;17.40;9.48;;;12.30;99.90;;;;;;4165384;28;20270;-94
2022/04/29 20:38:22;;;;;;;16.48;9.35;;;12.30;99.90;;;;;;4182530;28;20223;-96
2022/04/29 20:45:05;;;;;;;17.40;9.50;;;12.20;99.90;;;;;;4182496;28;20183;-94
2022/04/29 20:47:06;;;;;;;16.67;9.18;;;12.20;99.90;;;;;;4166639;28;20259;-94
2022/04/29 20:49:08;;;;;;;15.40;9.05;;;12.00;99.90;;;;;;4182198;28;20198;-94
2022/04/29 20:51:09;;;;;;;14.60;8.95;;;12.00;99.90;;;;;;4165973;28;20172;-94
2022/04/29 20:53:10;;;;;;;14.95;9.85;;;11.90;99.90;;;;;;4182717;28;20246;-94
2022/04/29 20:55:11;;;;;;;12.50;7.63;;;11.90;99.90;;;;;;4165900;28;20171;-95
2022/04/29 20:57:14;;;;;;;11.37;7.77;;;11.90;99.90;;;;;;4182380;28;20216;-95
2022/04/29 20:59:15;;;;;;;12.75;8.45;;;11.90;99.90;;;;;;4165766;28;20254;-95
2022/04/29 21:01:16;;;;;;;14.60;9.32;;;11.70;99.90;;;;;;4182232;28;20172;-95
2022/04/29 21:03:17;;;;;;;13.77;8.90;;;11.70;99.90;;;;;;4165799;28;20172;-95
2022/04/29 21:05:18;;;;;;;16.40;9.02;;;11.70;99.90;;;;;;4165593;28;20202;-94
2022/04/29 21:07:19;;;;;;;17.83;8.57;;;11.70;99.90;;;;;;4165425;28;20187;-94
2022/04/29 21:09:20;;;;;;;19.87;8.23;;;11.60;99.90;;;;;;4165431;28;20286;-95
2022/04/29 21:11:21;;;;;;;13.33;8.47;;;11.70;99.90;;;;;;4182304;28;20167;-95
2022/04/29 21:13:22;;;;;;;15.50;8.63;;;11.60;99.90;;;;;;4165898;28;20211;-94
2022/04/29 21:15:23;;;;;;;11.97;7.57;;;11.50;99.90;;;;;;4182053;28;20168;-96
2022/04/29 21:17:25;;;;;;;14.13;8.17;;;11.30;99.90;;;;;;4165736;28;20614;-95
2022/04/29 21:19:25;;;;;;;12.97;8.67;;;11.40;99.90;;;;;;4165519;28;20289;-95
2022/04/29 21:21:26;;;;;;;12.97;7.80;;;11.40;99.90;;;;;;4181700;28;20180;-95
2022/04/29 21:23:28;;;;;;;13.83;8.17;;;11.30;99.90;;;;;;4165658;28;20175;-94
2022/04/29 21:25:31;;;;;;;16.47;8.27;;;11.30;99.90;;;;;;4165358;28;20195;-95
2022/04/29 21:27:32;;;;;;;17.87;8.47;;;11.30;99.90;;;;;;4166149;28;20172;-94
2022/04/29 21:31:55;;;;;;;13.17;8.13;;;11.20;99.90;;;;;;4186063;28;20203;-94
2022/04/29 21:33:56;;;;;;;16.03;8.53;;;11.20;99.90;;;;;;4174444;28;20184;-93
2022/04/29 21:35:57;;;;;;;12.43;8.03;;;11.10;99.90;;;;;;4180139;28;20169;-93
2022/04/29 21:37:58;;;;;;;12.17;8.50;;;11.10;99.90;;;;;;4168438;28;20179;-93
2022/04/29 21:39:59;;;;;;;14.27;8.23;;;11.00;99.90;;;;;;4168568;28;20222;-96
2022/04/29 21:42:00;;;;;;;13.60;7.03;;;11.00;99.90;;;;;;4184433;28;20182;-95
2022/04/29 21:44:01;;;;;;;14.63;7.13;;;11.00;99.90;;;;;;4166509;28;20172;-95
2022/04/29 21:46:04;;;;;;;17.37;7.50;;;11.10;99.90;;;;;;4166897;28;20276;-95
2022/04/29 21:48:08;;;;;;;15.60;6.63;;;11.10;99.90;;;;;;4166824;28;20185;-96
2022/04/29 21:50:12;;;;;;;12.33;7.63;;;11.10;99.90;;;;;;4166130;28;20249;-95
2022/04/29 21:52:16;;;;;;;12.03;7.57;;;11.10;99.90;;;;;;4166594;28;20223;-96
2022/04/29 21:54:21;;;;;;;16.33;7.27;;;11.20;99.90;;;;;;4182563;28;20179;-95
2022/04/29 21:56:29;;;;;;;9.75;6.05;;;11.10;99.90;;;;;;4167201;28;20268;-95
2022/04/29 21:58:33;;;;;;;13.80;5.63;;;11.10;99.90;;;;;;4165640;28;20688;-95
2022/04/29 22:00:39;;;;;;;12.77;6.27;;;11.10;99.90;;;;;;4166973;28;20184;-95
2022/04/29 22:02:43;;;;;;;13.90;7.03;;;11.10;99.90;;;;;;4151166;28;20189;-96
2022/04/29 22:04:46;;;;;;;14.23;7.20;;;11.00;99.90;;;;;;4167342;28;20168;-94
2022/04/29 22:06:49;;;;;;;11.47;6.63;;;11.00;99.90;;;;;;4168204;28;20275;-95
2022/04/29 22:08:52;;;;;;;12.53;7.00;;;10.90;99.90;;;;;;4167345;28;20196;-96
2022/04/29 22:10:56;;;;;;;11.83;6.40;;;10.90;99.90;;;;;;4167559;28;20215;-96
2022/04/29 22:13:00;;;;;;;9.37;6.00;;;10.90;99.90;;;;;;4167274;28;20212;-95
2022/04/29 22:15:01;;;;;;;8.40;6.10;;;10.90;99.90;;;;;;4166471;28;20988;-96
2022/04/29 22:17:03;;;;;;;10.40;6.83;;;10.90;99.90;;;;;;4166885;28;20243;-96
2022/04/29 22:19:05;;;;;;;10.67;5.87;;;10.90;99.90;;;;;;4168859;28;20203;-96
2022/04/29 22:21:06;;;;;;;10.43;5.63;;;10.70;99.90;;;;;;4167433;28;20264;-95
2022/04/29 22:23:07;;;;;;;11.40;6.37;;;10.70;99.90;;;;;;4166437;28;20621;-95
2022/04/29 22:25:08;;;;;;;9.57;6.03;;;10.70;99.90;;;;;;4167465;28;20246;-95
2022/04/29 22:27:09;;;;;;;11.53;5.40;;;10.60;99.90;;;;;;4185236;28;20179;-96
2022/04/29 22:29:10;;;;;;;8.17;5.70;;;10.60;99.90;;;;;;4168115;28;20196;-96
2022/04/29 22:31:11;;;;;;;14.13;5.37;;;10.60;99.90;;;;;;4183091;28;20202;-96
2022/04/29 22:33:12;;;;;;;12.37;6.07;;;10.60;99.90;;;;;;4167009;28;20668;-96
2022/04/29 22:35:15;;;;;;;10.60;5.60;;;10.60;99.90;;;;;;4168724;28;20172;-93
2022/04/29 22:37:19;;;;;;;8.90;5.70;;;10.50;99.90;;;;;;4166417;28;20173;-95
2022/04/29 22:39:20;;;;;;;9.93;5.90;;;10.50;99.90;;;;;;4168068;28;20196;-95
2022/04/29 22:41:23;;;;;;;10.33;4.43;;;10.50;99.90;;;;;;4182747;28;20259;-93
2022/04/29 22:43:26;;;;;;;9.50;5.37;;;10.50;99.90;;;;;;4166323;28;20542;-96
2022/04/29 22:45:27;;;;;;;10.00;5.80;;;10.40;99.90;;;;;;4185298;28;20177;-96
2022/04/29 22:47:34;;;;;;;9.80;5.17;;;10.40;99.90;;;;;;4171420;28;20175;-96
2022/04/29 22:49:36;;;;;;;10.03;5.47;;;10.40;99.90;;;;;;4167459;28;20285;-93
2022/04/29 22:51:37;;;;;;;13.57;5.60;;;10.40;99.90;;;;;;4165242;28;20180;-94
2022/04/29 22:53:47;;;;;;;9.77;4.77;;;10.30;99.90;;;;;;4170796;28;20172;-96
2022/04/29 22:55:47;;;;;;;12.00;5.37;;;10.20;99.90;;;;;;4168030;28;20176;-96
2022/04/29 22:57:51;;;;;;;10.70;5.53;;;10.20;99.90;;;;;;4168158;28;20264;-95
2022/04/29 22:59:52;;;;;;;9.20;5.13;;;10.10;99.90;;;;;;4173166;28;20164;-96
2022/04/29 23:01:53;;;;;;;7.50;5.30;;;10.10;99.90;;;;;;4175763;28;20215;-95
2022/04/29 23:03:55;;;;;;;13.17;6.17;;;10.10;99.90;;;;;;4190314;28;20175;-96
2022/04/29 23:05:56;;;;;;;9.17;5.57;;;10.00;99.90;;;;;;4174431;28;20256;-96
2022/04/29 23:08:00;;;;;;;10.13;4.90;;;9.90;99.90;;;;;;4189723;28;20175;-96
2022/04/29 23:10:01;;;;;;;10.73;5.83;;;9.90;99.90;;;;;;4173330;28;20168;-96
2022/04/29 23:12:03;;;;;;;11.43;5.00;;;9.90;99.90;;;;;;4190303;28;20215;-96
2022/04/29 23:14:04;;;;;;;8.17;4.77;;;9.80;99.90;;;;;;4174505;28;20184;-96
2022/04/29 23:16:06;;;;;;;11.50;5.20;;;9.80;99.90;;;;;;4172625;28;20259;-96
2022/04/29 23:20:27;;;;;;;10.43;5.17;;;9.80;99.90;;;;;;4190511;28;20251;-96
2022/04/29 23:22:29;;;;;;;13.97;5.93;;;9.80;99.90;;;;;;4172891;28;20171;-95
2022/04/29 23:24:33;;;;;;;14.27;5.60;;;9.70;99.90;;;;;;4190191;28;20184;-95
2022/04/29 23:26:37;;;;;;;8.83;5.03;;;9.60;99.90;;;;;;4174296;28;20198;-95
2022/04/29 23:28:39;;;;;;;9.77;5.80;;;9.50;99.90;;;;;;4189726;28;20214;-96
2022/04/29 23:30:41;;;;;;;9.80;5.47;;;9.50;99.90;;;;;;4173923;28;20199;-96
2022/04/29 23:32:43;;;;;;;10.07;6.00;;;9.40;99.90;;;;;;4173140;28;20230;-96
2022/04/29 23:34:44;;;;;;;7.63;5.03;;;9.40;99.90;;;;;;4174601;28;20648;-95
2022/04/29 23:36:46;;;;;;;9.67;5.43;;;9.40;99.90;;;;;;4190267;28;20243;-95
2022/04/29 23:38:47;;;;;;;7.40;4.60;;;9.30;99.90;;;;;;4171649;28;20191;-96
2022/04/29 23:40:48;;;;;;;8.70;5.40;;;9.30;99.90;;;;;;4170277;28;20176;-95
2022/04/29 23:42:59;;;;;;;10.63;4.90;;;9.30;99.90;;;;;;4173717;28;20183;-96
2022/04/29 23:45:00;;;;;;;12.87;5.23;;;9.30;99.90;;;;;;4175055;28;20176;-96
2022/04/29 23:47:03;;;;;;;9.90;4.77;;;9.30;99.90;;;;;;4189137;28;20186;-95
2022/04/29 23:49:07;;;;;;;10.17;5.23;;;9.20;99.90;;;;;;4174558;28;20192;-96
2022/04/29 23:51:08;;;;;;;10.03;5.13;;;9.30;99.90;;;;;;4172231;28;20179;-96
2022/04/29 23:53:09;;;;;;;10.53;5.53;;;9.30;99.90;;;;;;4170947;28;20208;-96
2022/04/29 23:55:13;;;;;;;9.40;5.57;;;9.30;99.90;;;;;;4186735;28;20244;-93
2022/04/29 23:57:15;;;;;;;9.80;5.33;;;9.30;99.90;;;;;;4173398;28;20180;-95
2022/04/29 23:59:16;;;;;;;10.03;5.17;;;9.30;99.90;;;;;;4171771;28;20259;-96
